Wetterstation Vordersexau
Wetterdaten: Woche 25.05.15 - 31.05.15 (KW22)
Datum Zeit Temp. A. Feuchte A. Luftdruck Regen Wind Richtung Taupunkt Windchill Windben
25.05.2015 00:00 12,9 C 81 % 1014,4 hPa 0,0 l/m 0,0 km/h O-NO 9,7 C 12,9 C 0,0 km/h
25.05.2015 01:00 12,4 C 81 % 1014,1 hPa 0,0 l/m 0,0 km/h O-NO 9,2 C 12,4 C 0,0 km/h
25.05.2015 02:00 11,9 C 82 % 1014,0 hPa 0,0 l/m 0,0 km/h O-NO 8,9 C 11,9 C 0,0 km/h
25.05.2015 03:00 11,8 C 83 % 1014,1 hPa 0,0 l/m 0,0 km/h O-NO 9,0 C 11,8 C 0,0 km/h
25.05.2015 04:00 11,9 C 83 % 1013,9 hPa 0,0 l/m 0,0 km/h O-NO 9,1 C 11,9 C 0,0 km/h
25.05.2015 05:00 11,5 C 83 % 1013,9 hPa 0,0 l/m 0,0 km/h O-NO 8,7 C 11,5 C 0,0 km/h
25.05.2015 06:00 12,1 C 84 % 1013,6 hPa 0,0 l/m 0,0 km/h O-SO 9,5 C 12,1 C 0,0 km/h
25.05.2015 07:00 14,4 C 82 % 1013,6 hPa 0,0 l/m 0,6 km/h O-SO 11,4 C 14,4 C 0,4 km/h
25.05.2015 08:00 16,7 C 73 % 1013,6 hPa 0,0 l/m 0,0 km/h O-SO 11,8 C 16,7 C 0,0 km/h
25.05.2015 09:00 18,1 C 71 % 1013,7 hPa 0,0 l/m 0,0 km/h SW 12,8 C 18,1 C 0,0 km/h
25.05.2015 10:00 24,1 C 54 % 1013,2 hPa 0,0 l/m 0,0 km/h W 14,2 C 24,1 C 0,0 km/h
25.05.2015 11:00 26,4 C 46 % 1012,6 hPa 0,0 l/m 7,1 km/h W-NW 13,8 C 26,3 C 4,0 km/h
25.05.2015 12:00 21,0 C 56 % 1012,1 hPa 0,0 l/m 0,0 km/h W 11,9 C 21,0 C 0,0 km/h
25.05.2015 13:00 22,8 C 51 % 1011,9 hPa 0,0 l/m 0,0 km/h N-NO 12,1 C 22,8 C 0,0 km/h
25.05.2015 14:00 18,6 C 61 % 1011,5 hPa 0,4 l/m 0,0 km/h SO 10,9 C 18,6 C 0,0 km/h
25.05.2015 15:00 20,3 C 65 % 1010,9 hPa 0,4 l/m 0,0 km/h N 13,5 C 20,3 C 0,0 km/h
25.05.2015 16:00 18,8 C 61 % 1011,3 hPa 0,0 l/m 3,2 km/h N 11,1 C 18,8 C 1,8 km/h
25.05.2015 17:00 16,6 C 68 % 1011,6 hPa 0,0 l/m 17,5 km/h N-NW 10,7 C 12,4 C 9,7 km/h
25.05.2015 18:00 15,1 C 74 % 1011,9 hPa 0,0 l/m 0,0 km/h N 10,5 C 15,1 C 0,0 km/h
25.05.2015 19:00 13,8 C 80 % 1012,1 hPa 0,8 l/m 0,0 km/h N 10,4 C 13,8 C 0,0 km/h
25.05.2015 20:00 13,3 C 82 % 1012,1 hPa 0,0 l/m 0,0 km/h N 10,3 C 13,3 C 0,0 km/h
25.05.2015 21:00 12,9 C 83 % 1012,5 hPa 0,0 l/m 0,0 km/h O-NO 10,1 C 12,9 C 0,0 km/h
25.05.2015 22:00 12,8 C 84 % 1012,8 hPa 0,0 l/m 0,0 km/h O-NO 10,2 C 12,8 C 0,0 km/h
25.05.2015 23:00 12,4 C 84 % 1012,8 hPa 0,0 l/m 0,0 km/h O-NO 9,8 C 12,4 C 0,0 km/h
26.05.2015 00:00 12,3 C 84 % 1012,8 hPa 0,0 l/m 0,0 km/h O-NO 9,7 C 12,3 C 0,0 km/h
26.05.2015 01:00 12,0 C 84 % 1012,7 hPa 0,4 l/m 0,0 km/h O-NO 9,4 C 12,0 C 0,0 km/h
26.05.2015 02:00 11,9 C 84 % 1012,7 hPa 0,0 l/m 0,0 km/h O-NO 9,3 C 11,9 C 0,0 km/h
26.05.2015 03:00 11,6 C 83 % 1012,8 hPa 0,0 l/m 0,0 km/h O-NO 8,8 C 11,6 C 0,0 km/h
26.05.2015 04:00 10,5 C 84 % 1012,9 hPa 0,0 l/m 0,0 km/h O-NO 7,9 C 10,5 C 0,0 km/h
26.05.2015 05:00 10,7 C 83 % 1013,1 hPa 0,0 l/m 0,0 km/h N 7,9 C 10,7 C 0,0 km/h
26.05.2015 06:00 11,4 C 83 % 1013,7 hPa 0,0 l/m 0,0 km/h NO 8,6 C 11,4 C 0,0 km/h
26.05.2015 07:00 12,4 C 84 % 1013,9 hPa 0,0 l/m 0,0 km/h N-NO 9,8 C 12,4 C 0,0 km/h
26.05.2015 08:00 15,2 C 78 % 1014,6 hPa 0,0 l/m 0,0 km/h N 11,4 C 15,2 C 0,0 km/h
26.05.2015 09:00 17,8 C 68 % 1014,8 hPa 0,0 l/m 2,6 km/h W-NW 11,8 C 17,8 C 1,4 km/h
26.05.2015 10:00 14,9 C 74 % 1015,1 hPa 0,0 l/m 1,9 km/h N 10,3 C 14,9 C 1,1 km/h
26.05.2015 11:00 15,2 C 73 % 1015,9 hPa 0,0 l/m 10,4 km/h N 10,4 C 13,2 C 5,8 km/h
26.05.2015 12:00 14,4 C 73 % 1016,1 hPa 0,0 l/m 0,0 km/h N-NW 9,6 C 14,4 C 0,0 km/h
26.05.2015 13:00 17,8 C 64 % 1016,3 hPa 0,0 l/m 0,0 km/h NW 10,9 C 17,8 C 0,0 km/h
26.05.2015 14:00 18,1 C 60 % 1016,6 hPa 0,0 l/m 0,0 km/h N-NW 10,2 C 18,1 C 0,0 km/h
26.05.2015 15:00 17,8 C 60 % 1016,6 hPa 0,0 l/m 1,9 km/h N 9,9 C 17,8 C 1,1 km/h
26.05.2015 16:00 18,1 C 58 % 1016,8 hPa 0,0 l/m 12,3 km/h N-NO 9,7 C 15,7 C 6,8 km/h
26.05.2015 17:00 16,9 C 56 % 1017,4 hPa 0,0 l/m 14,9 km/h N-NO 8,1 C 13,5 C 8,3 km/h
26.05.2015 18:00 15,3 C 58 % 1017,8 hPa 0,0 l/m 0,0 km/h N 7,1 C 15,3 C 0,0 km/h
26.05.2015 19:00 13,9 C 60 % 1018,8 hPa 0,0 l/m 2,6 km/h N-NW 6,3 C 13,9 C 1,4 km/h
26.05.2015 20:00 13,0 C 61 % 1019,3 hPa 0,0 l/m 0,0 km/h N 5,7 C 13,0 C 0,0 km/h
26.05.2015 21:00 12,2 C 63 % 1020,1 hPa 0,0 l/m 0,0 km/h N 5,4 C 12,2 C 0,0 km/h
26.05.2015 22:00 10,4 C 68 % 1020,3 hPa 0,0 l/m 0,0 km/h N-NO 4,8 C 10,4 C 0,0 km/h
26.05.2015 23:00 9,1 C 74 % 1020,6 hPa 0,0 l/m 0,0 km/h N-NO 4,7 C 9,1 C 0,0 km/h
27.05.2015 00:00 6,8 C 79 % 1020,8 hPa 0,0 l/m 0,0 km/h N-NO 3,4 C 6,8 C 0,0 km/h
27.05.2015 01:00 5,6 C 82 % 1020,9 hPa 0,0 l/m 0,0 km/h N-NO 2,8 C 5,6 C 0,0 km/h
27.05.2015 02:00 6,3 C 84 % 1021,1 hPa 0,0 l/m 0,0 km/h N-NO 3,8 C 6,3 C 0,0 km/h
27.05.2015 03:00 5,4 C 84 % 1021,5 hPa 0,0 l/m 0,0 km/h N-NO 2,9 C 5,4 C 0,0 km/h
27.05.2015 04:00 4,7 C 85 % 1021,2 hPa 0,0 l/m 0,0 km/h NO 2,4 C 4,7 C 0,0 km/h
27.05.2015 05:00 4,8 C 85 % 1021,5 hPa 0,0 l/m 0,0 km/h NO 2,5 C 4,8 C 0,0 km/h
27.05.2015 06:00 6,8 C 85 % 1021,5 hPa 0,0 l/m 0,0 km/h NO 4,5 C 6,8 C 0,0 km/h
27.05.2015 07:00 9,0 C 84 % 1021,8 hPa 0,0 l/m 0,0 km/h O 6,4 C 9,0 C 0,0 km/h
27.05.2015 08:00 11,2 C 81 % 1022,2 hPa 0,0 l/m 0,0 km/h O 8,1 C 11,2 C 0,0 km/h
27.05.2015 09:00 12,6 C 74 % 1022,1 hPa 0,0 l/m 0,0 km/h S-SW 8,1 C 12,6 C 0,0 km/h
27.05.2015 10:00 18,6 C 56 % 1022,3 hPa 0,0 l/m 3,2 km/h W-NW 9,6 C 18,6 C 1,8 km/h
27.05.2015 11:00 17,8 C 57 % 1022,0 hPa 0,0 l/m 1,3 km/h N 9,2 C 17,8 C 0,7 km/h
27.05.2015 12:00 20,3 C 47 % 1021,6 hPa 0,0 l/m 0,0 km/h W-NW 8,6 C 20,3 C 0,0 km/h
27.05.2015 13:00 18,8 C 48 % 1021,3 hPa 0,0 l/m 4,5 km/h NW 7,6 C 18,8 C 2,5 km/h
27.05.2015 14:00 20,3 C 42 % 1020,7 hPa 0,0 l/m 2,6 km/h S-SW 7,0 C 20,3 C 1,4 km/h
27.05.2015 15:00 21,4 C 40 % 1020,4 hPa 0,0 l/m 0,0 km/h N 7,2 C 21,4 C 0,0 km/h
27.05.2015 16:00 22,9 C 35 % 1020,1 hPa 0,0 l/m 0,0 km/h W-NW 6,6 C 22,9 C 0,0 km/h
27.05.2015 17:00 25,2 C 32 % 1019,4 hPa 0,0 l/m 0,0 km/h N-NO 7,3 C 25,2 C 0,0 km/h
27.05.2015 18:00 24,4 C 33 % 1019,2 hPa 0,0 l/m 4,5 km/h N 7,1 C 24,4 C 2,5 km/h
27.05.2015 19:00 17,5 C 43 % 1019,1 hPa 0,0 l/m 0,0 km/h N 4,8 C 17,5 C 0,0 km/h
27.05.2015 20:00 14,4 C 52 % 1019,0 hPa 0,0 l/m 0,0 km/h O-NO 4,7 C 14,4 C 0,0 km/h
27.05.2015 21:00 9,8 C 67 % 1019,2 hPa 0,0 l/m 0,0 km/h SO 4,0 C 9,8 C 0,0 km/h
27.05.2015 22:00 8,1 C 72 % 1019,4 hPa 0,0 l/m 0,0 km/h SO 3,4 C 8,1 C 0,0 km/h
27.05.2015 23:00 6,7 C 76 % 1019,0 hPa 0,0 l/m 0,0 km/h O-NO 2,8 C 6,7 C 0,0 km/h
28.05.2015 00:00 6,9 C 80 % 1018,7 hPa 0,0 l/m 0,0 km/h O-NO 3,7 C 6,9 C 0,0 km/h
28.05.2015 01:00 6,5 C 82 % 1018,4 hPa 0,0 l/m 0,0 km/h SO 3,7 C 6,5 C 0,0 km/h
28.05.2015 02:00 5,9 C 82 % 1017,8 hPa 0,0 l/m 0,0 km/h SO 3,1 C 5,9 C 0,0 km/h
28.05.2015 03:00 5,8 C 83 % 1017,4 hPa 0,0 l/m 0,0 km/h O-SO 3,1 C 5,8 C 0,0 km/h
28.05.2015 04:00 6,0 C 84 % 1017,2 hPa 0,0 l/m 4,5 km/h O-NO 3,5 C 6,0 C 2,5 km/h
28.05.2015 05:00 5,8 C 84 % 1017,1 hPa 0,0 l/m 0,0 km/h O-SO 3,3 C 5,8 C 0,0 km/h
28.05.2015 06:00 6,8 C 84 % 1017,4 hPa 0,0 l/m 0,0 km/h O-SO 4,3 C 6,8 C 0,0 km/h
28.05.2015 07:00 11,3 C 84 % 1017,4 hPa 0,0 l/m 0,0 km/h NO 8,7 C 11,3 C 0,0 km/h
28.05.2015 08:00 20,3 C 54 % 1017,2 hPa 0,0 l/m 0,0 km/h SW 10,7 C 20,3 C 0,0 km/h
28.05.2015 09:00 21,8 C 47 % 1017,4 hPa 0,0 l/m 9,1 km/h W-SW 10,0 C 20,9 C 5,0 km/h
28.05.2015 10:00 21,4 C 48 % 1017,0 hPa 0,0 l/m 0,0 km/h S-SO 9,9 C 21,4 C 0,0 km/h
28.05.2015 11:00 21,9 C 44 % 1016,2 hPa 0,0 l/m 14,3 km/h W 9,1 C 19,7 C 7,9 km/h
28.05.2015 12:00 22,4 C 43 % 1015,8 hPa 0,0 l/m 2,6 km/h S-SO 9,2 C 22,4 C 1,4 km/h
28.05.2015 13:00 23,6 C 42 % 1015,2 hPa 0,0 l/m 6,5 km/h W 9,9 C 23,6 C 3,6 km/h
28.05.2015 14:00 23,9 C 42 % 1014,5 hPa 0,0 l/m 0,6 km/h W-SW 10,2 C 23,9 C 0,4 km/h
28.05.2015 15:00 23,8 C 40 % 1013,9 hPa 0,0 l/m 0,0 km/h S 9,4 C 23,8 C 0,0 km/h
28.05.2015 16:00 25,9 C 38 % 1013,5 hPa 0,0 l/m 16,2 km/h S-SW 10,5 C 24,2 C 9,0 km/h
28.05.2015 17:00 26,1 C 36 % 1012,8 hPa 0,0 l/m 7,8 km/h SW 9,8 C 25,8 C 4,3 km/h
28.05.2015 18:00 21,3 C 44 % 1012,5 hPa 0,0 l/m 25,3 km/h S-SW 8,5 C 17,1 C 14,0 km/h
28.05.2015 19:00 20,0 C 48 % 1012,6 hPa 0,0 l/m 8,4 km/h S-SW 8,7 C 19,2 C 4,7 km/h
28.05.2015 20:00 18,6 C 52 % 1012,8 hPa 0,0 l/m 3,2 km/h SW 8,5 C 18,6 C 1,8 km/h
28.05.2015 21:00 15,0 C 61 % 1013,3 hPa 0,0 l/m 0,0 km/h N-NO 7,5 C 15,0 C 0,0 km/h
28.05.2015 22:00 14,9 C 69 % 1013,4 hPa 0,0 l/m 0,0 km/h N-NO 9,3 C 14,9 C 0,0 km/h
28.05.2015 23:00 13,2 C 72 % 1013,4 hPa 0,0 l/m 0,0 km/h N-NO 8,3 C 13,2 C 0,0 km/h
29.05.2015 00:00 12,6 C 76 % 1013,2 hPa 0,0 l/m 0,0 km/h N-NO 8,5 C 12,6 C 0,0 km/h
29.05.2015 01:00 10,1 C 79 % 1013,4 hPa 0,0 l/m 0,0 km/h O-SO 6,6 C 10,1 C 0,0 km/h
29.05.2015 02:00 9,9 C 82 % 1013,2 hPa 0,0 l/m 0,0 km/h NO 7,0 C 9,9 C 0,0 km/h
29.05.2015 03:00 9,8 C 82 % 1012,8 hPa 0,0 l/m 0,0 km/h NO 6,9 C 9,8 C 0,0 km/h
29.05.2015 04:00 10,0 C 84 % 1012,1 hPa 0,0 l/m 0,0 km/h O-SO 7,4 C 10,0 C 0,0 km/h
29.05.2015 05:00 9,8 C 83 % 1011,9 hPa 0,0 l/m 0,0 km/h SO 7,1 C 9,8 C 0,0 km/h
29.05.2015 06:00 11,5 C 83 % 1011,6 hPa 0,0 l/m 0,0 km/h SO 8,7 C 11,5 C 0,0 km/h
29.05.2015 07:00 12,4 C 81 % 1011,9 hPa 0,0 l/m 0,0 km/h N 9,2 C 12,4 C 0,0 km/h
29.05.2015 08:00 15,2 C 80 % 1011,6 hPa 0,0 l/m 0,0 km/h N-NW 11,8 C 15,2 C 0,0 km/h
29.05.2015 09:00 16,3 C 73 % 1011,3 hPa 0,0 l/m 0,0 km/h N-NW 11,4 C 16,3 C 0,0 km/h
29.05.2015 10:00 18,8 C 69 % 1011,1 hPa 0,0 l/m 0,0 km/h W-NW 13,0 C 18,8 C 0,0 km/h
29.05.2015 11:00 18,9 C 66 % 1010,6 hPa 0,0 l/m 0,0 km/h S 12,4 C 18,9 C 0,0 km/h
29.05.2015 12:00 23,2 C 59 % 1010,0 hPa 0,0 l/m 3,2 km/h W-SW 14,7 C 23,2 C 1,8 km/h
29.05.2015 13:00 24,8 C 50 % 1009,1 hPa 0,0 l/m 19,4 km/h S-SW 13,7 C 22,5 C 10,8 km/h
29.05.2015 14:00 23,6 C 49 % 1008,3 hPa 0,0 l/m 1,9 km/h W 12,2 C 23,6 C 1,1 km/h
29.05.2015 15:00 23,5 C 44 % 1007,9 hPa 0,0 l/m 21,4 km/h W-SW 10,5 C 20,5 C 11,9 km/h
29.05.2015 16:00 23,3 C 37 % 1007,8 hPa 0,0 l/m 36,3 km/h W-SW 7,8 C 18,9 C 20,2 km/h
29.05.2015 17:00 24,1 C 34 % 1007,5 hPa 0,0 l/m 21,4 km/h N-NO 7,2 C 21,3 C 11,9 km/h
29.05.2015 18:00 21,3 C 49 % 1007,9 hPa 0,0 l/m 1,9 km/h N 10,1 C 21,3 C 1,1 km/h
29.05.2015 19:00 19,6 C 58 % 1008,8 hPa 0,0 l/m 0,0 km/h N 11,1 C 19,6 C 0,0 km/h
29.05.2015 20:00 17,5 C 64 % 1009,3 hPa 0,0 l/m 0,0 km/h NO 10,6 C 17,5 C 0,0 km/h
29.05.2015 21:00 13,4 C 73 % 1010,0 hPa 0,0 l/m 0,0 km/h NO 8,7 C 13,4 C 0,0 km/h
29.05.2015 22:00 12,6 C 78 % 1010,4 hPa 0,0 l/m 0,0 km/h NO 8,9 C 12,6 C 0,0 km/h
29.05.2015 23:00 12,1 C 82 % 1010,6 hPa 0,0 l/m 0,0 km/h SW 9,1 C 12,1 C 0,0 km/h
30.05.2015 00:00 11,8 C 83 % 1010,9 hPa 0,4 l/m 0,0 km/h NO 9,0 C 11,8 C 0,0 km/h
30.05.2015 01:00 11,9 C 84 % 1011,2 hPa 0,0 l/m 0,0 km/h NO 9,3 C 11,9 C 0,0 km/h
30.05.2015 02:00 11,6 C 84 % 1011,0 hPa 0,0 l/m 0,0 km/h W-SW 9,0 C 11,6 C 0,0 km/h
30.05.2015 03:00 13,8 C 76 % 1011,2 hPa 0,0 l/m 6,5 km/h W-SW 9,6 C 13,8 C 3,6 km/h
30.05.2015 04:00 14,9 C 69 % 1011,0 hPa 0,0 l/m 3,2 km/h W-NW 9,3 C 14,9 C 1,8 km/h
30.05.2015 05:00 14,4 C 69 % 1011,7 hPa 0,0 l/m 6,5 km/h W 8,8 C 14,4 C 3,6 km/h
30.05.2015 06:00 14,1 C 72 % 1012,2 hPa 0,0 l/m 0,0 km/h W 9,1 C 14,1 C 0,0 km/h
30.05.2015 07:00 14,1 C 74 % 1012,6 hPa 0,0 l/m 0,0 km/h W-NW 9,5 C 14,1 C 0,0 km/h
30.05.2015 08:00 15,5 C 73 % 1013,2 hPa 0,0 l/m 3,2 km/h W 10,7 C 15,5 C 1,8 km/h
30.05.2015 09:00 15,8 C 70 % 1013,6 hPa 0,0 l/m 19,4 km/h W 10,3 C 10,9 C 10,8 km/h
30.05.2015 10:00 16,3 C 69 % 1013,8 hPa 0,0 l/m 0,6 km/h W 10,6 C 16,3 C 0,4 km/h
30.05.2015 11:00 16,2 C 63 % 1014,0 hPa 0,0 l/m 3,9 km/h O-SO 9,1 C 16,2 C 2,2 km/h
30.05.2015 12:00 15,6 C 69 % 1014,5 hPa 0,0 l/m 1,3 km/h NO 9,9 C 15,6 C 0,7 km/h
30.05.2015 13:00 16,1 C 70 % 1014,8 hPa 0,0 l/m 0,0 km/h O-NO 10,6 C 16,1 C 0,0 km/h
30.05.2015 14:00 17,5 C 66 % 1014,8 hPa 0,0 l/m 0,0 km/h O-NO 11,1 C 17,5 C 0,0 km/h
30.05.2015 15:00 19,9 C 61 % 1014,8 hPa 0,0 l/m 0,0 km/h N-NO 12,2 C 19,9 C 0,0 km/h
30.05.2015 16:00 18,3 C 63 % 1015,0 hPa 0,0 l/m 2,6 km/h N-NO 11,1 C 18,3 C 1,4 km/h
30.05.2015 17:00 17,5 C 63 % 1015,0 hPa 0,0 l/m 3,9 km/h O-NO 10,4 C 17,5 C 2,2 km/h
30.05.2015 18:00 19,6 C 59 % 1015,1 hPa 0,0 l/m 0,0 km/h O-SO 11,4 C 19,6 C 0,0 km/h
30.05.2015 19:00 17,4 C 66 % 1015,3 hPa 0,0 l/m 0,0 km/h O 11,0 C 17,4 C 0,0 km/h
30.05.2015 20:00 15,1 C 69 % 1015,2 hPa 0,0 l/m 0,0 km/h O-SO 9,5 C 15,1 C 0,0 km/h
30.05.2015 21:00 11,6 C 78 % 1015,8 hPa 0,0 l/m 0,0 km/h O 7,9 C 11,6 C 0,0 km/h
30.05.2015 22:00 10,6 C 82 % 1015,9 hPa 0,0 l/m 0,0 km/h S-SO 7,7 C 10,6 C 0,0 km/h
30.05.2015 23:00 9,4 C 84 % 1015,9 hPa 0,0 l/m 3,2 km/h S-SO 6,8 C 9,4 C 1,8 km/h
31.05.2015 00:00 9,0 C 84 % 1016,1 hPa 0,0 l/m 0,0 km/h S-SO 6,4 C 9,0 C 0,0 km/h
31.05.2015 01:00 8,4 C 85 % 1015,9 hPa 0,0 l/m 0,0 km/h SO 6,0 C 8,4 C 0,0 km/h
31.05.2015 02:00 8,2 C 85 % 1015,5 hPa 0,0 l/m 0,0 km/h O 5,8 C 8,2 C 0,0 km/h
31.05.2015 03:00 7,9 C 84 % 1015,3 hPa 0,0 l/m 0,0 km/h SO 5,4 C 7,9 C 0,0 km/h
31.05.2015 04:00 7,3 C 84 % 1015,3 hPa 0,0 l/m 0,0 km/h O-SO 4,8 C 7,3 C 0,0 km/h
31.05.2015 05:00 7,4 C 84 % 1015,5 hPa 0,0 l/m 0,0 km/h O-SO 4,9 C 7,4 C 0,0 km/h
31.05.2015 06:00 9,6 C 83 % 1015,4 hPa 0,0 l/m 0,0 km/h SO 6,9 C 9,6 C 0,0 km/h
31.05.2015 07:00 12,6 C 84 % 1015,1 hPa 0,0 l/m 0,0 km/h S-SO 10,0 C 12,6 C 0,0 km/h
31.05.2015 08:00 18,4 C 71 % 1014,8 hPa 0,0 l/m 0,0 km/h W-SW 13,0 C 18,4 C 0,0 km/h
31.05.2015 09:00 20,2 C 63 % 1014,9 hPa 0,0 l/m 0,0 km/h S-SW 12,9 C 20,2 C 0,0 km/h
31.05.2015 10:00 23,1 C 54 % 1014,6 hPa 0,0 l/m 0,0 km/h W-NW 13,3 C 23,1 C 0,0 km/h
31.05.2015 11:00 23,4 C 50 % 1014,1 hPa 0,0 l/m 9,1 km/h W-NW 12,4 C 22,6 C 5,0 km/h
31.05.2015 12:00 23,3 C 49 % 1013,7 hPa 0,0 l/m 22,0 km/h S 12,0 C 20,2 C 12,2 km/h
31.05.2015 13:00 24,3 C 47 % 1013,4 hPa 0,0 l/m 11,7 km/h W-NW 12,3 C 23,0 C 6,5 km/h
31.05.2015 14:00 24,8 C 45 % 1013,2 hPa 0,0 l/m 19,4 km/h S 12,0 C 22,5 C 10,8 km/h
31.05.2015 15:00 24,8 C 43 % 1012,9 hPa 0,0 l/m 20,1 km/h S 11,4 C 22,4 C 11,2 km/h
31.05.2015 16:00 24,9 C 44 % 1012,7 hPa 0,0 l/m 7,1 km/h SW 11,8 C 24,7 C 4,0 km/h
31.05.2015 17:00 25,2 C 43 % 1012,3 hPa 0,0 l/m 5,8 km/h W 11,7 C 25,2 C 3,2 km/h
31.05.2015 18:00 23,1 C 45 % 1012,2 hPa 0,0 l/m 18,8 km/h W-SW 10,5 C 20,4 C 10,4 km/h
31.05.2015 19:00 21,6 C 47 % 1012,5 hPa 0,0 l/m 11,7 km/h W-SW 9,8 C 19,9 C 6,5 km/h
31.05.2015 20:00 19,6 C 52 % 1012,8 hPa 0,0 l/m 0,0 km/h W 9,5 C 19,6 C 0,0 km/h
31.05.2015 21:00 17,8 C 58 % 1013,1 hPa 0,0 l/m 0,0 km/h S 9,4 C 17,8 C 0,0 km/h
31.05.2015 22:00 15,6 C 66 % 1013,3 hPa 0,0 l/m 0,0 km/h SO 9,3 C 15,6 C 0,0 km/h
31.05.2015 23:00 14,6 C 72 % 1013,3 hPa 0,0 l/m 0,0 km/h SO 9,6 C 14,6 C 0,0 km/h
Min-Datum _ 27.05.15 27.05.15 29.05.15 - 25.05.15 - 27.05.15 27.05.15 25.05.15
_ Min-Zeit 04:51 17:51 17:51 - 00:51 - 04:51 04:51 00:51
Minimum _ 4,7 C 32 % 1007,5 hPa - 0,0 km/h - 2,4 C 4,7 C 0,0 km/h
Max-Datum _ 25.05.15 27.05.15 27.05.15 25.05.15 29.05.15 - 29.05.15 25.05.15 29.05.15
_ Max-Zeit 11:51 04:51 10:51 19:51 16:51 - 12:51 11:51 16:51
Maximum _ 26,4 C 85 % 1022,3 hPa 0,8 l/m 36,3 km/h
W-SW
- 14,7 C 26,3 C 20,2 km/h
W-SW
Durchschnitt _ 15,4 C 67 % 1014,8 hPa #2,5 l/m 2,8 km/h O-NO 8,8 C 15,1 C 1,6 km/h
www.sexauwetter.de